Time;durP1;ratioP1;P1;durP2;ratioP2;P2;SDS_P1;SDS_P2;PMS_P1;PMS_P2;Temp;Humidity;BMP_temperature;BMP_pressure;BME280_temperature;BME280_humidity;BME280_pressure;Samples;Min_cycle;Max_cycle;Signal;HPM_P1;HPM_P2
2021/04/14 00:02:23;;;;;;;5.57;3.93;;;0.30;88.40;;;;;;6246966;28;20050;-78
2021/04/14 00:05:46;;;;;;;4.27;3.87;;;0.20;88.90;;;;;;6245884;28;20054;-77
2021/04/14 00:08:47;;;;;;;5.50;4.70;;;0.20;89.10;;;;;;6246142;28;20130;-77
2021/04/14 00:11:49;;;;;;;7.20;4.23;;;0.10;89.60;;;;;;6255181;28;20073;-78
2021/04/14 00:14:50;;;;;;;10.80;4.07;;;0.10;89.90;;;;;;6273339;28;20049;-78
2021/04/14 00:17:52;;;;;;;7.47;3.73;;;0.10;89.90;;;;;;6272606;28;20425;-77
2021/04/14 00:20:54;;;;;;;8.20;3.87;;;0.10;90.10;;;;;;6273150;28;20118;-78
2021/04/14 00:23:56;;;;;;;5.17;3.57;;;0.00;90.20;;;;;;6274026;28;20124;-78
2021/04/14 00:26:57;;;;;;;4.90;4.30;;;0.00;90.40;;;;;;6273394;28;20059;-78
2021/04/14 00:29:58;;;;;;;7.87;4.20;;;0.00;90.60;;;;;;6273895;28;20104;-78
2021/04/14 00:33:01;;;;;;;4.33;3.93;;;0.00;90.80;;;;;;6273792;28;20123;-77
2021/04/14 00:36:03;;;;;;;8.33;4.00;;;-0.10;90.90;;;;;;6272900;28;20506;-77
2021/04/14 00:39:05;;;;;;;5.70;3.93;;;-0.10;91.30;;;;;;6273374;28;20434;-78
2021/04/14 00:42:07;;;;;;;9.20;4.53;;;-0.10;91.40;;;;;;6273059;28;20045;-78
2021/04/14 00:45:09;;;;;;;6.07;3.77;;;-0.10;91.50;;;;;;6284546;28;20140;-78
2021/04/14 00:48:12;;;;;;;8.33;5.57;;;-0.20;91.50;;;;;;6279909;28;20109;-77
2021/04/14 00:51:14;;;;;;;5.40;4.83;;;-0.10;91.60;;;;;;6281096;28;20057;-77
2021/04/14 00:54:15;;;;;;;5.03;3.47;;;-0.20;91.80;;;;;;6276725;28;20049;-77
2021/04/14 00:57:17;;;;;;;8.70;3.77;;;-0.20;91.80;;;;;;6271659;28;20080;-77
2021/04/14 01:00:22;;;;;;;7.53;3.80;;;-0.20;92.00;;;;;;6271894;28;20462;-77
2021/04/14 01:03:31;;;;;;;9.10;4.77;;;-0.20;92.00;;;;;;6272498;28;20418;-77
2021/04/14 01:06:32;;;;;;;8.40;5.17;;;-0.30;92.10;;;;;;6252290;28;20502;-77
2021/04/14 01:09:34;;;;;;;10.40;4.40;;;-0.20;92.30;;;;;;6246088;28;20045;-77
2021/04/14 01:12:35;;;;;;;7.30;3.60;;;-0.20;92.40;;;;;;6246359;28;20533;-77
2021/04/14 01:15:38;;;;;;;5.93;3.47;;;-0.30;92.30;;;;;;6246956;28;20137;-77
2021/04/14 01:18:40;;;;;;;3.93;3.53;;;-0.30;92.60;;;;;;6250332;28;20131;-77
2021/04/14 01:21:44;;;;;;;6.57;4.87;;;-0.30;92.60;;;;;;6251195;28;20049;-77
2021/04/14 01:24:45;;;;;;;5.13;4.63;;;-0.40;92.60;;;;;;6250757;28;20128;-77
2021/04/14 01:27:46;;;;;;;4.90;3.63;;;-0.40;92.80;;;;;;6250081;28;20065;-77
2021/04/14 01:30:50;;;;;;;7.83;4.83;;;-0.50;92.70;;;;;;6250920;28;20699;-77
2021/04/14 01:33:51;;;;;;;4.77;4.20;;;-0.50;93.00;;;;;;6250770;28;20491;-76
2021/04/14 01:36:54;;;;;;;7.40;4.43;;;-0.40;93.50;;;;;;6246568;28;20124;-76
2021/04/14 01:39:55;;;;;;;4.97;4.43;;;-0.40;93.30;;;;;;6250102;28;20072;-76
2021/04/14 01:42:57;;;;;;;5.00;4.50;;;-0.40;93.20;;;;;;6250644;28;20073;-76
2021/04/14 01:45:58;;;;;;;5.93;4.97;;;-0.50;93.40;;;;;;6249047;28;20136;-76
2021/04/14 01:49:00;;;;;;;7.17;4.40;;;-0.50;93.60;;;;;;6249877;28;20567;-76
2021/04/14 01:52:02;;;;;;;6.57;4.87;;;-0.50;93.90;;;;;;6249781;28;20128;-77
2021/04/14 01:55:06;;;;;;;4.50;4.07;;;-0.50;94.10;;;;;;6252251;28;20053;-77
2021/04/14 01:58:08;;;;;;;5.30;3.80;;;-0.50;94.30;;;;;;6254706;28;20065;-77
2021/04/14 02:01:10;;;;;;;5.97;4.63;;;-0.50;94.40;;;;;;6249373;28;20049;-77
2021/04/14 02:04:12;;;;;;;6.33;4.00;;;-0.50;94.20;;;;;;6249996;28;20051;-76
2021/04/14 02:07:14;;;;;;;6.10;4.23;;;-0.50;94.40;;;;;;6247751;28;20084;-76
2021/04/14 02:10:16;;;;;;;6.50;3.70;;;-0.60;94.40;;;;;;6249859;28;20098;-76
2021/04/14 02:13:19;;;;;;;6.40;3.90;;;-0.60;94.50;;;;;;6249443;28;20076;-76
2021/04/14 02:16:22;;;;;;;4.90;3.97;;;-0.60;94.50;;;;;;6249065;28;20124;-77
2021/04/14 02:19:23;;;;;;;5.90;4.17;;;-0.70;94.60;;;;;;6245706;28;20136;-77
2021/04/14 02:22:25;;;;;;;5.23;4.63;;;-0.70;94.80;;;;;;6248612;28;20541;-76
2021/04/14 02:25:26;;;;;;;7.50;5.17;;;-0.70;95.00;;;;;;6248821;28;20179;-76
2021/04/14 02:28:28;;;;;;;5.77;3.70;;;-0.80;95.00;;;;;;6247878;28;20048;-77
2021/04/14 02:31:32;;;;;;;8.13;4.13;;;-0.70;95.10;;;;;;6248728;28;20072;-76
2021/04/14 02:34:34;;;;;;;5.53;4.10;;;-0.80;95.00;;;;;;6249599;28;20511;-77
2021/04/14 02:37:36;;;;;;;7.00;4.40;;;-0.80;95.30;;;;;;6248178;28;20081;-76
2021/04/14 02:40:38;;;;;;;8.53;6.33;;;-0.80;95.20;;;;;;6248719;28;20128;-77
2021/04/14 02:43:39;;;;;;;7.43;4.00;;;-0.90;95.40;;;;;;6249855;28;20037;-77
2021/04/14 02:46:41;;;;;;;5.80;4.67;;;-0.90;95.50;;;;;;6251936;28;20196;-78
2021/04/14 02:49:42;;;;;;;8.70;5.77;;;-0.90;95.50;;;;;;6250267;28;20065;-77
2021/04/14 02:52:45;;;;;;;5.77;5.17;;;-1.00;95.50;;;;;;6249805;28;20088;-77
2021/04/14 02:55:46;;;;;;;7.33;5.10;;;-1.00;95.70;;;;;;6250082;28;20038;-77
2021/04/14 02:58:47;;;;;;;5.57;4.17;;;-1.00;95.70;;;;;;6249140;28;20049;-77
2021/04/14 03:01:49;;;;;;;6.63;4.60;;;-1.10;95.80;;;;;;6254135;28;20049;-77
2021/04/14 03:04:50;;;;;;;5.97;4.77;;;-1.00;96.10;;;;;;6255262;28;20046;-77
2021/04/14 03:07:53;;;;;;;5.53;4.17;;;-1.00;95.90;;;;;;6253663;28;20073;-77
2021/04/14 03:10:54;;;;;;;4.70;4.30;;;-1.10;96.30;;;;;;6255238;28;20120;-77
2021/04/14 03:13:56;;;;;;;5.70;3.97;;;-1.00;96.50;;;;;;6254890;28;20052;-77
2021/04/14 03:16:57;;;;;;;4.73;4.20;;;-1.00;96.30;;;;;;6254018;28;20065;-77
2021/04/14 03:19:58;;;;;;;6.67;4.10;;;-1.00;96.50;;;;;;6253293;28;20087;-78
2021/04/14 03:23:01;;;;;;;4.93;3.63;;;-1.00;96.40;;;;;;6250673;28;20100;-77
2021/04/14 03:26:02;;;;;;;8.83;5.13;;;-1.00;96.40;;;;;;6248258;28;20132;-77
2021/04/14 03:29:04;;;;;;;4.30;3.90;;;-1.00;96.50;;;;;;6249206;28;20037;-76
2021/04/14 03:32:06;;;;;;;4.30;3.90;;;-1.00;96.60;;;;;;6248809;28;20049;-77
2021/04/14 03:35:09;;;;;;;6.13;4.57;;;-1.00;96.60;;;;;;6252064;28;20049;-78
2021/04/14 03:38:11;;;;;;;4.57;4.03;;;-1.10;96.60;;;;;;6249171;28;20076;-76
2021/04/14 03:41:13;;;;;;;6.27;4.50;;;-1.20;96.50;;;;;;6251167;28;20511;-78
2021/04/14 03:44:14;;;;;;;5.43;4.90;;;-1.20;96.70;;;;;;6250642;28;20542;-78
2021/04/14 03:47:15;;;;;;;8.43;5.33;;;-1.20;97.70;;;;;;6251709;28;20187;-77
2021/04/14 03:50:19;;;;;;;12.80;7.33;;;-0.90;99.10;;;;;;6251236;28;20049;-77
2021/04/14 03:53:26;;;;;;;5.90;4.70;;;-0.60;99.80;;;;;;6251414;28;20505;-79
2021/04/14 03:56:27;;;;;;;7.43;4.32;;;-0.20;99.30;;;;;;6256274;28;20045;-78
2021/04/14 03:59:29;;;;;;;6.13;3.63;;;0.00;98.70;;;;;;6254033;28;20128;-78
2021/04/14 04:02:30;;;;;;;8.87;4.03;;;0.00;97.90;;;;;;6254018;28;20060;-78
2021/04/14 04:05:31;;;;;;;5.57;3.83;;;0.30;99.00;;;;;;6252820;28;20053;-79
2021/04/14 04:08:34;;;;;;;3.90;3.53;;;0.30;96.60;;;;;;6259294;28;20068;-77
2021/04/14 04:11:35;;;;;;;6.07;3.87;;;0.60;98.10;;;;;;6258594;28;20053;-78
2021/04/14 04:14:46;;;;;;;3.73;3.33;;;1.00;96.40;;;;;;6260427;28;20457;-78
2021/04/14 04:17:47;;;;;;;5.63;3.53;;;1.20;95.30;;;;;;6258630;28;20109;-77
2021/04/14 04:20:49;;;;;;;5.27;3.73;;;0.90;93.90;;;;;;6254785;28;20061;-79
2021/04/14 04:23:51;;;;;;;4.80;3.97;;;0.50;93.90;;;;;;6256067;28;20084;-78
2021/04/14 04:26:52;;;;;;;5.97;3.67;;;0.20;93.90;;;;;;6254155;28;20080;-78
2021/04/14 04:29:54;;;;;;;6.73;3.90;;;0.00;94.20;;;;;;6255482;28;20065;-76
2021/04/14 04:32:55;;;;;;;6.10;5.23;;;-0.10;94.30;;;;;;6265918;28;20049;-77
2021/04/14 04:35:57;;;;;;;6.90;5.70;;;-0.10;94.60;;;;;;6252038;28;20046;-77
2021/04/14 04:38:59;;;;;;;17.37;5.33;;;-0.20;94.70;;;;;;6252321;28;20056;-77
2021/04/14 04:42:00;;;;;;;9.83;5.13;;;-0.10;94.70;;;;;;6252285;28;20110;-78
2021/04/14 04:45:02;;;;;;;13.27;5.47;;;-0.20;94.70;;;;;;6252561;28;20073;-77
2021/04/14 04:48:04;;;;;;;9.27;4.77;;;-0.10;94.80;;;;;;6252852;28;20041;-77
2021/04/14 04:51:07;;;;;;;6.00;4.23;;;-0.20;94.90;;;;;;6252312;28;20578;-77
2021/04/14 04:54:10;;;;;;;5.73;4.60;;;-0.20;94.90;;;;;;6252787;28;20575;-77
2021/04/14 04:57:11;;;;;;;8.27;4.87;;;-0.20;95.10;;;;;;6252232;28;20056;-77
2021/04/14 05:00:14;;;;;;;11.40;6.13;;;-0.10;95.20;;;;;;6253537;28;20143;-78
2021/04/14 05:03:17;;;;;;;6.07;5.20;;;-0.20;95.20;;;;;;6251925;28;20167;-77
2021/04/14 05:06:18;;;;;;;13.83;5.40;;;-0.10;95.30;;;;;;6249956;28;20084;-77
2021/04/14 05:09:21;;;;;;;6.17;4.60;;;-0.10;95.20;;;;;;6246701;28;20880;-78
2021/04/14 05:12:22;;;;;;;11.77;6.07;;;0.00;95.20;;;;;;6246757;28;20056;-77
2021/04/14 05:15:27;;;;;;;6.43;5.17;;;0.00;95.30;;;;;;6247173;28;20143;-77
2021/04/14 05:18:30;;;;;;;7.20;4.67;;;0.10;95.30;;;;;;6246600;28;20586;-76
2021/04/14 05:21:33;;;;;;;7.43;5.37;;;0.10;95.40;;;;;;6247699;28;20084;-77
2021/04/14 05:24:35;;;;;;;9.57;7.10;;;0.30;97.10;;;;;;6253734;28;20315;-77
2021/04/14 05:27:38;;;;;;;8.53;6.00;;;0.40;96.40;;;;;;6252520;28;20100;-78
2021/04/14 05:30:43;;;;;;;8.77;6.90;;;0.50;95.70;;;;;;6255939;28;20053;-78
2021/04/14 05:33:45;;;;;;;6.40;5.87;;;0.60;95.40;;;;;;6257108;28;20061;-77
2021/04/14 05:36:46;;;;;;;7.07;6.27;;;0.80;95.20;;;;;;6260627;28;20084;-77
2021/04/14 05:39:49;;;;;;;9.57;6.43;;;0.90;94.90;;;;;;6259515;28;20049;-78
2021/04/14 05:42:51;;;;;;;9.67;6.63;;;1.00;94.60;;;;;;6255830;28;20084;-77
2021/04/14 05:45:56;;;;;;;6.97;5.83;;;1.20;94.40;;;;;;6254682;28;20064;-78
2021/04/14 05:48:57;;;;;;;9.37;6.43;;;1.30;94.20;;;;;;6249121;28;20124;-78
2021/04/14 05:51:59;;;;;;;6.53;5.93;;;1.50;93.90;;;;;;6246375;28;20727;-77
2021/04/14 05:55:01;;;;;;;7.50;6.77;;;1.60;93.40;;;;;;6247217;28;20422;-77
2021/04/14 05:58:02;;;;;;;13.70;6.60;;;1.70;93.20;;;;;;6245051;28;20041;-77
2021/04/14 06:01:05;;;;;;;9.63;6.90;;;1.90;92.90;;;;;;6246898;28;20484;-77
2021/04/14 06:04:06;;;;;;;8.97;7.03;;;1.90;92.70;;;;;;6241223;28;20388;-77
2021/04/14 06:07:08;;;;;;;6.80;5.93;;;2.00;92.70;;;;;;6238310;28;20088;-78
2021/04/14 06:10:12;;;;;;;9.57;6.47;;;2.00;92.70;;;;;;6229652;28;20037;-76
2021/04/14 06:13:13;;;;;;;8.97;6.27;;;2.10;92.80;;;;;;6248450;28;20041;-77
2021/04/14 06:16:16;;;;;;;12.13;8.40;;;2.10;92.80;;;;;;6249038;28;20472;-77
2021/04/14 06:19:17;;;;;;;11.93;8.00;;;2.40;92.70;;;;;;6248336;28;20512;-76
2021/04/14 06:22:19;;;;;;;10.70;8.63;;;2.70;92.10;;;;;;6249932;28;20081;-76
2021/04/14 06:25:22;;;;;;;10.40;8.43;;;3.10;91.10;;;;;;6248411;28;20481;-76
2021/04/14 06:28:25;;;;;;;9.90;7.87;;;3.60;90.10;;;;;;6248263;28;20071;-76
2021/04/14 06:31:26;;;;;;;9.60;8.13;;;3.90;87.40;;;;;;6249001;28;20136;-76
2021/04/14 06:34:29;;;;;;;9.10;8.13;;;4.30;86.00;;;;;;6248919;28;20099;-76
2021/04/14 06:37:30;;;;;;;10.88;9.20;;;4.60;83.90;;;;;;6247487;28;20065;-76
2021/04/14 06:44:01;;;;;;;14.52;9.68;;;5.00;80.90;;;;;;6248079;28;20380;-76
2021/04/14 06:47:12;;;;;;;14.80;9.15;;;5.30;79.70;;;;;;6248611;28;20059;-76
2021/04/14 06:50:17;;;;;;;18.92;10.13;;;5.40;78.20;;;;;;6248357;28;20046;-76
2021/04/14 06:53:33;;;;;;;14.40;10.32;;;5.50;77.60;;;;;;6248450;28;20140;-76
2021/04/14 06:56:38;;;;;;;15.85;10.05;;;6.10;80.20;;;;;;6247379;28;20423;-77
2021/04/14 06:59:43;;;;;;;13.63;10.23;;;6.30;77.90;;;;;;6251788;28;20045;-76
2021/04/14 07:02:50;;;;;;;13.40;9.38;;;6.80;87.20;;;;;;6248700;28;20089;-77
2021/04/14 07:05:56;;;;;;;15.60;9.45;;;7.00;77.40;;;;;;6253123;28;20160;-78
2021/04/14 07:09:07;;;;;;;14.93;8.18;;;7.40;72.40;;;;;;6254799;28;20137;-78
2021/04/14 07:12:12;;;;;;;10.82;8.27;;;7.40;68.00;;;;;;6248384;28;20065;-77
2021/04/14 07:15:16;;;;;;;8.38;6.97;;;7.50;65.90;;;;;;6225818;28;20058;-77
2021/04/14 07:18:30;;;;;;;9.65;7.97;;;7.30;65.90;;;;;;6222550;28;20129;-75
2021/04/14 07:21:37;;;;;;;13.57;9.27;;;7.60;65.90;;;;;;6223384;28;20103;-76
2021/04/14 07:24:43;;;;;;;11.65;7.07;;;7.70;64.20;;;;;;6222956;28;20042;-76
2021/04/14 07:27:59;;;;;;;11.13;7.22;;;7.60;64.70;;;;;;6222699;28;20754;-76
2021/04/14 07:31:08;;;;;;;8.07;6.28;;;7.40;65.00;;;;;;6223626;28;20129;-76
2021/04/14 07:34:19;;;;;;;6.63;5.93;;;7.20;64.90;;;;;;6223137;28;20226;-76
2021/04/14 07:37:27;;;;;;;9.02;5.47;;;7.10;64.60;;;;;;6222196;28;20501;-76
2021/04/14 07:40:36;;;;;;;9.27;6.25;;;6.70;66.10;;;;;;6222789;28;20129;-76
2021/04/14 07:43:48;;;;;;;7.82;6.10;;;6.50;66.30;;;;;;6222862;28;20053;-76
2021/04/14 07:46:49;;;;;;;6.85;5.55;;;6.70;65.80;;;;;;6222509;28;20050;-77
2021/04/14 07:49:51;;;;;;;7.18;4.82;;;7.10;65.20;;;;;;6222363;28;20536;-76
2021/04/14 07:52:52;;;;;;;6.50;5.35;;;7.60;63.40;;;;;;6222381;28;20053;-77
2021/04/14 07:56:03;;;;;;;4.25;3.63;;;8.30;62.00;;;;;;6223417;28;20076;-77
2021/04/14 07:59:10;;;;;;;5.70;3.65;;;8.90;59.50;;;;;;6222374;28;20510;-77
2021/04/14 08:02:14;;;;;;;9.63;4.18;;;9.30;57.50;;;;;;6226849;28;20072;-77
2021/04/14 08:05:24;;;;;;;6.53;3.95;;;9.50;56.20;;;;;;6227129;28;20142;-77
2021/04/14 08:08:30;;;;;;;7.05;4.05;;;9.90;64.50;;;;;;6221696;28;20480;-76
2021/04/14 08:11:35;;;;;;;4.95;4.00;;;9.70;55.40;;;;;;6222851;28;20136;-76
2021/04/14 08:14:39;;;;;;;7.65;4.88;;;9.90;54.80;;;;;;6243721;28;20507;-76
2021/04/14 08:17:41;;;;;;;4.88;4.15;;;10.00;54.60;;;;;;6244546;28;20503;-76
2021/04/14 08:20:44;;;;;;;6.85;5.03;;;10.50;59.40;;;;;;6246682;28;20080;-76
2021/04/14 08:23:55;;;;;;;5.65;4.68;;;11.10;58.30;;;;;;6285827;22;20112;-77
2021/04/14 08:26:58;;;;;;;7.43;4.72;;;11.60;55.40;;;;;;6273031;28;20045;-77
2021/04/14 08:30:10;;;;;;;10.05;4.88;;;11.90;53.60;;;;;;6273965;28;20049;-77
2021/04/14 08:33:19;;;;;;;6.10;2.90;;;12.30;52.90;;;;;;6274144;28;20127;-77
2021/04/14 08:36:28;;;;;;;4.97;3.80;;;12.30;48.80;;;;;;6274045;28;20592;-77
2021/04/14 08:39:39;;;;;;;5.97;3.55;;;12.40;47.40;;;;;;6273964;28;20129;-77
2021/04/14 08:42:41;;;;;;;6.05;3.97;;;12.40;47.50;;;;;;6275052;28;20056;-76
2021/04/14 08:45:45;;;;;;;6.25;3.92;;;12.30;47.60;;;;;;6278090;28;20364;-77
2021/04/14 08:48:52;;;;;;;4.25;2.90;;;12.50;47.30;;;;;;6276782;28;20045;-77
2021/04/14 08:51:55;;;;;;;5.93;4.63;;;12.40;46.90;;;;;;6276149;28;20048;-76
2021/04/14 08:54:59;;;;;;;3.40;2.97;;;12.50;46.90;;;;;;6274944;28;20053;-76
2021/04/14 08:58:00;;;;;;;12.70;4.82;;;12.70;45.90;;;;;;6274039;28;20509;-77
2021/04/14 09:01:04;;;;;;;11.27;3.70;;;12.60;46.60;;;;;;6273232;28;20053;-77
2021/04/14 09:04:08;;;;;;;4.10;2.67;;;12.40;46.00;;;;;;6272099;28;20120;-77
2021/04/14 09:07:10;;;;;;;8.90;2.83;;;11.90;46.30;;;;;;6272729;28;20045;-77
2021/04/14 09:10:36;;;;;;;4.97;3.45;;;11.80;47.50;;;;;;6271895;28;20049;-77
2021/04/14 09:13:50;;;;;;;3.53;2.83;;;12.00;47.50;;;;;;6271573;28;20102;-77
2021/04/14 09:16:55;;;;;;;3.55;2.55;;;12.50;46.40;;;;;;6248969;28;20050;-77
2021/04/14 09:20:10;;;;;;;3.92;2.83;;;13.00;46.00;;;;;;6247432;28;20485;-77
2021/04/14 09:23:14;;;;;;;7.72;3.20;;;13.10;45.50;;;;;;6247351;28;20139;-77
2021/04/14 09:26:23;;;;;;;5.10;3.45;;;12.90;45.60;;;;;;6247507;28;20049;-77
2021/04/14 09:29:28;;;;;;;9.63;3.88;;;12.90;46.40;;;;;;6246741;28;20583;-77
2021/04/14 09:32:52;;;;;;;9.07;3.42;;;13.20;46.40;;;;;;6249433;28;20506;-77
2021/04/14 09:36:04;;;;;;;5.28;3.58;;;13.50;45.40;;;;;;6251074;28;20125;-78
2021/04/14 09:39:10;;;;;;;5.35;2.92;;;13.50;45.50;;;;;;6254154;28;20049;-78
2021/04/14 09:42:17;;;;;;;4.55;3.22;;;13.50;43.60;;;;;;6253869;28;20053;-77
2021/04/14 09:45:35;;;;;;;5.05;1.92;;;13.60;43.20;;;;;;6254129;28;20053;-77
2021/04/14 09:48:38;;;;;;;;;;;13.70;42.00;;;;;;6253889;28;20172;-76
2021/04/14 09:51:42;;;;;;;3.20;2.40;;;13.60;50.60;;;;;;6252697;28;20355;-76
2021/04/14 09:54:45;;;;;;;7.32;3.72;;;13.50;49.60;;;;;;6253174;28;20076;-76
2021/04/14 09:57:49;;;;;;;3.65;2.80;;;13.50;47.90;;;;;;6251858;28;20055;-77
2021/04/14 10:00:54;;;;;;;5.70;2.10;;;13.80;45.10;;;;;;6253114;28;20125;-77
2021/04/14 10:04:00;;;;;;;3.45;3.15;;;13.80;43.40;;;;;;6254248;28;20522;-77
2021/04/14 10:07:04;;;;;;;5.03;3.13;;;13.30;41.20;;;;;;6253355;28;20049;-77
2021/04/14 10:10:08;;;;;;;3.47;1.77;;;13.40;41.40;;;;;;6258663;28;20068;-76
2021/04/14 10:13:10;;;;;;;3.92;3.53;;;13.40;38.50;;;;;;6270150;28;20076;-76
2021/04/14 10:16:20;;;;;;;2.55;2.35;;;12.90;38.40;;;;;;6284751;28;20092;-75
2021/04/14 10:19:28;;;;;;;2.90;1.98;;;12.90;41.20;;;;;;6272181;28;20049;-76
2021/04/14 10:22:34;;;;;;;4.28;1.90;;;13.00;39.20;;;;;;6276471;28;20033;-76
2021/04/14 10:25:37;;;;;;;2.25;1.98;;;13.40;38.90;;;;;;6275670;28;20052;-76
2021/04/14 10:28:43;;;;;;;2.00;1.77;;;13.80;37.20;;;;;;6266327;28;20049;-77
2021/04/14 10:31:45;;;;;;;2.38;2.10;;;14.40;44.10;;;;;;6257235;28;20065;-77
2021/04/14 10:34:48;;;;;;;4.03;2.17;;;14.00;38.50;;;;;;6253547;28;20506;-77
2021/04/14 10:37:51;;;;;;;2.13;1.83;;;13.90;37.00;;;;;;6252967;28;20045;-77
2021/04/14 10:40:52;;;;;;;4.90;2.63;;;13.90;35.10;;;;;;6252104;28;20394;-76
2021/04/14 10:43:54;;;;;;;5.82;2.80;;;13.70;40.00;;;;;;6251729;28;20050;-77
2021/04/14 10:47:00;;;;;;;6.15;2.75;;;13.80;40.00;;;;;;6252420;28;20415;-77
2021/04/14 10:50:06;;;;;;;3.92;2.53;;;13.90;38.60;;;;;;6251914;28;20545;-77
2021/04/14 10:53:10;;;;;;;4.40;2.53;;;13.40;40.70;;;;;;6251250;28;20522;-77
2021/04/14 10:56:17;;;;;;;7.97;3.13;;;13.20;40.00;;;;;;6254532;28;20068;-77
2021/04/14 10:59:22;;;;;;;5.05;2.75;;;13.10;41.50;;;;;;6256323;28;20128;-77
2021/04/14 11:02:28;;;;;;;4.82;3.65;;;12.80;45.70;;;;;;6253006;28;20526;-77
2021/04/14 11:05:31;;;;;;;4.65;2.80;;;12.30;42.00;;;;;;6250067;28;20041;-77
2021/04/14 11:08:35;;;;;;;4.38;2.38;;;11.90;43.10;;;;;;6249809;28;20293;-77
2021/04/14 11:11:39;;;;;;;4.07;2.60;;;11.90;42.90;;;;;;6250986;28;20054;-76
2021/04/14 11:14:44;;;;;;;4.90;2.75;;;12.00;41.80;;;;;;6251621;28;20524;-77
2021/04/14 11:17:54;;;;;;;7.53;3.15;;;12.20;43.00;;;;;;6253574;28;20068;-77
2021/04/14 11:20:59;;;;;;;3.47;2.20;;;12.30;41.00;;;;;;6256831;28;20120;-77
2021/04/14 11:24:06;;;;;;;8.50;3.60;;;12.20;41.10;;;;;;6258423;28;20071;-78
2021/04/14 11:27:15;;;;;;;10.02;3.33;;;12.30;40.10;;;;;;6255186;28;20114;-79
2021/04/14 11:30:17;;;;;;;6.65;4.05;;;12.20;40.70;;;;;;6251128;28;20105;-77
2021/04/14 11:33:20;;;;;;;5.28;3.35;;;11.90;41.50;;;;;;6250250;28;20148;-77
2021/04/14 11:36:30;;;;;;;3.50;3.13;;;11.90;43.50;;;;;;6251474;28;20041;-77
2021/04/14 11:39:48;;;;;;;5.25;3.22;;;11.90;42.80;;;;;;6251685;28;20128;-77
2021/04/14 11:42:54;;;;;;;2.95;2.75;;;11.90;42.40;;;;;;6266482;28;20050;-77
2021/04/14 11:45:58;;;;;;;2.75;2.40;;;12.00;42.60;;;;;;6251451;28;20124;-77
2021/04/14 11:49:02;;;;;;;2.97;2.70;;;12.20;41.10;;;;;;6251183;28;20045;-77
2021/04/14 11:52:19;;;;;;;4.60;2.42;;;12.30;38.60;;;;;;6250820;28;20052;-76
2021/04/14 11:55:28;;;;;;;2.80;1.95;;;12.40;36.60;;;;;;6251487;28;20384;-77
2021/04/14 11:58:38;;;;;;;3.88;1.95;;;12.30;36.70;;;;;;6250429;28;20076;-77
2021/04/14 12:01:50;;;;;;;2.25;2.13;;;12.20;36.20;;;;;;6249536;28;20045;-77
2021/04/14 12:04:57;;;;;;;6.53;3.13;;;12.30;37.30;;;;;;6249968;28;20045;-77
2021/04/14 12:07:59;;;;;;;4.13;2.58;;;12.30;41.90;;;;;;6250087;28;20063;-77
2021/04/14 12:11:02;;;;;;;2.88;2.63;;;12.20;44.00;;;;;;6250595;28;20506;-77
2021/04/14 12:14:04;;;;;;;3.35;3.05;;;12.10;43.60;;;;;;6249523;28;20580;-77
2021/04/14 12:17:06;;;;;;;3.80;3.00;;;12.00;44.50;;;;;;6261744;28;20502;-77
2021/04/14 12:20:08;;;;;;;8.07;5.15;;;12.00;43.90;;;;;;6274092;28;20101;-76
2021/04/14 12:23:10;;;;;;;4.55;3.10;;;12.00;43.20;;;;;;6274580;28;20084;-77
2021/04/14 12:26:11;;;;;;;2.67;2.38;;;12.00;43.30;;;;;;6274398;28;20179;-77
2021/04/14 12:29:14;;;;;;;4.55;2.47;;;12.00;42.60;;;;;;6274045;28;20414;-77
2021/04/14 12:32:16;;;;;;;5.18;2.75;;;12.00;41.90;;;;;;6274149;28;20505;-77
2021/04/14 12:35:18;;;;;;;3.28;2.97;;;12.00;40.60;;;;;;6273861;28;20419;-78
2021/04/14 12:38:20;;;;;;;3.40;3.08;;;12.00;39.10;;;;;;6273858;28;20053;-77
2021/04/14 12:41:21;;;;;;;4.25;2.60;;;11.60;39.60;;;;;;6273811;28;20140;-77
2021/04/14 12:44:23;;;;;;;2.90;2.20;;;11.80;39.50;;;;;;6273928;28;20064;-78
2021/04/14 12:47:27;;;;;;;5.13;2.90;;;12.20;38.30;;;;;;6272509;28;20052;-77
2021/04/14 12:50:28;;;;;;;7.13;4.90;;;12.70;37.30;;;;;;6272683;28;20073;-76
2021/04/14 12:53:31;;;;;;;20.38;2.95;;;13.00;36.80;;;;;;6273378;28;20045;-78
2021/04/14 12:56:35;;;;;;;2.55;2.35;;;13.10;37.10;;;;;;6272988;28;20533;-76
2021/04/14 12:59:41;;;;;;;3.08;2.72;;;13.00;37.50;;;;;;6272873;28;20079;-78
2021/04/14 13:02:45;;;;;;;3.50;2.28;;;12.70;37.40;;;;;;6275707;28;20083;-77
2021/04/14 13:05:52;;;;;;;3.97;2.50;;;12.80;37.00;;;;;;6271933;28;20580;-76
2021/04/14 13:08:56;;;;;;;2.55;1.67;;;13.30;35.40;;;;;;6271991;28;20045;-77
2021/04/14 13:12:03;;;;;;;1.85;1.70;;;13.40;33.70;;;;;;6273757;28;20068;-77
2021/04/14 13:15:07;;;;;;;9.38;2.45;;;13.40;34.50;;;;;;6278466;28;20398;-78
2021/04/14 13:18:08;;;;;;;2.33;2.13;;;13.60;35.10;;;;;;6275984;28;20049;-77
2021/04/14 13:21:18;;;;;;;3.72;2.00;;;13.90;34.50;;;;;;6277028;28;20072;-77
2021/04/14 13:24:25;;;;;;;3.13;1.98;;;14.00;32.60;;;;;;6280206;28;20065;-77
2021/04/14 13:27:32;;;;;;;5.03;3.67;;;13.80;33.70;;;;;;6280158;28;20482;-77
2021/04/14 13:30:43;;;;;;;3.47;3.17;;;13.90;34.20;;;;;;6281635;28;20077;-77
2021/04/14 13:33:49;;;;;;;5.13;2.47;;;14.00;34.90;;;;;;6279282;28;20418;-78
2021/04/14 13:37:00;;;;;;;2.30;1.92;;;13.90;34.80;;;;;;6280828;28;20056;-77
2021/04/14 13:40:09;;;;;;;4.95;1.83;;;13.70;35.20;;;;;;6281336;28;20124;-77
2021/04/14 13:43:28;;;;;;;2.90;2.40;;;13.40;34.40;;;;;;6280983;28;20049;-77
2021/04/14 13:46:32;;;;;;;3.17;2.00;;;13.20;35.70;;;;;;6279177;28;20064;-75
2021/04/14 13:49:38;;;;;;;4.57;3.15;;;13.10;36.70;;;;;;6276359;28;20490;-77
2021/04/14 13:52:41;;;;;;;2.42;2.05;;;12.90;37.10;;;;;;6276948;28;20540;-76
2021/04/14 13:55:44;;;;;;;4.18;2.60;;;12.80;37.80;;;;;;6276547;28;20128;-76
2021/04/14 13:58:51;;;;;;;1.83;1.73;;;12.70;38.60;;;;;;6277067;28;20049;-77
2021/04/14 14:02:02;;;;;;;3.45;1.77;;;12.50;38.40;;;;;;6276971;28;20051;-76
2021/04/14 14:05:09;;;;;;;4.22;2.67;;;12.30;39.20;;;;;;6276342;28;20118;-75
2021/04/14 14:08:15;;;;;;;4.25;2.60;;;12.30;39.10;;;;;;6275728;28;20065;-77
2021/04/14 14:11:21;;;;;;;2.30;2.10;;;11.90;39.50;;;;;;6276554;28;20049;-76
2021/04/14 14:14:22;;;;;;;5.30;2.15;;;11.80;40.70;;;;;;6275729;28;20644;-76
2021/04/14 14:17:26;;;;;;;5.43;3.28;;;11.60;40.80;;;;;;6274490;28;20541;-77
2021/04/14 14:20:30;;;;;;;3.90;2.03;;;11.50;41.50;;;;;;6263976;28;20088;-76
2021/04/14 14:23:37;;;;;;;5.53;2.35;;;11.10;40.80;;;;;;6250237;28;20561;-77
2021/04/14 14:26:44;;;;;;;8.38;2.47;;;10.90;42.80;;;;;;6252502;28;20125;-77
2021/04/14 14:29:45;;;;;;;4.35;3.25;;;10.80;41.60;;;;;;6251152;28;20063;-77
2021/04/14 14:32:47;;;;;;;2.28;2.03;;;10.80;41.60;;;;;;6251335;28;20080;-77
2021/04/14 14:35:53;;;;;;;3.17;2.47;;;10.90;40.50;;;;;;6251207;28;20065;-77
2021/04/14 14:39:05;;;;;;;2.67;2.30;;;10.60;40.00;;;;;;6250734;28;20438;-77
2021/04/14 14:42:12;;;;;;;2.92;2.72;;;10.40;39.40;;;;;;6250072;28;20049;-77
2021/04/14 14:45:20;;;;;;;2.45;2.00;;;10.50;39.70;;;;;;6250221;28;20136;-76
2021/04/14 14:48:25;;;;;;;2.63;2.42;;;10.70;40.40;;;;;;6249760;28;20551;-76
2021/04/14 14:51:27;;;;;;;2.50;2.30;;;10.60;42.00;;;;;;6250314;28;20136;-76
2021/04/14 14:54:31;;;;;;;2.35;2.15;;;10.40;42.80;;;;;;6250755;28;20088;-76
2021/04/14 14:57:35;;;;;;;2.60;2.00;;;10.20;43.30;;;;;;6250052;28;20053;-76
2021/04/14 15:00:38;;;;;;;2.92;1.98;;;10.20;44.10;;;;;;6250674;28;20124;-75
2021/04/14 15:03:39;;;;;;;4.95;3.58;;;10.30;43.90;;;;;;6249746;28;20578;-78
2021/04/14 15:06:42;;;;;;;7.32;2.65;;;10.40;42.90;;;;;;6252922;28;20081;-78
2021/04/14 15:09:45;;;;;;;5.25;2.78;;;10.40;42.80;;;;;;6251914;28;20045;-77
2021/04/14 15:12:47;;;;;;;3.35;2.63;;;10.60;42.90;;;;;;6250832;28;20057;-75
2021/04/14 15:15:49;;;;;;;8.90;4.05;;;10.60;41.50;;;;;;6249781;28;20091;-74
2021/04/14 15:18:51;;;;;;;5.18;1.92;;;10.50;41.10;;;;;;6250816;28;20646;-74
2021/04/14 15:21:53;;;;;;;6.10;2.20;;;10.40;41.60;;;;;;6271685;28;20045;-76
2021/04/14 15:24:55;;;;;;;2.60;2.28;;;10.30;42.10;;;;;;6274861;28;20131;-77
2021/04/14 15:28:00;;;;;;;2.53;2.30;;;10.30;41.30;;;;;;6274519;28;20071;-76
2021/04/14 15:31:01;;;;;;;2.22;2.03;;;10.40;41.60;;;;;;6278421;28;20095;-77
2021/04/14 15:34:03;;;;;;;2.38;2.15;;;10.20;41.90;;;;;;6275103;28;20056;-76
2021/04/14 15:37:05;;;;;;;3.17;2.38;;;10.10;42.60;;;;;;6274154;28;20094;-76
2021/04/14 15:40:07;;;;;;;5.78;2.20;;;10.30;42.00;;;;;;6276575;28;20036;-77
2021/04/14 15:43:10;;;;;;;2.88;2.67;;;10.20;42.10;;;;;;6276184;28;20506;-76
2021/04/14 15:46:12;;;;;;;3.60;2.42;;;10.10;42.10;;;;;;6275201;28;20115;-75
2021/04/14 15:49:16;;;;;;;2.67;2.45;;;10.00;41.90;;;;;;6275648;28;20529;-76
2021/04/14 15:52:17;;;;;;;5.55;2.30;;;9.80;42.20;;;;;;6273849;28;20560;-76
2021/04/14 15:55:23;;;;;;;3.90;2.03;;;9.70;42.40;;;;;;6275357;28;20056;-77
2021/04/14 15:58:25;;;;;;;2.70;2.35;;;9.70;41.60;;;;;;6276767;28;20049;-79
2021/04/14 16:01:27;;;;;;;4.43;2.42;;;9.60;40.70;;;;;;6276341;28;20521;-76
2021/04/14 16:04:29;;;;;;;2.38;2.08;;;9.50;40.90;;;;;;6276653;28;20692;-76